sensor_id;sensor_type;location;lat;lon;timestamp;temperature;humidity
33673;DHT22;20011;51.510;9.942;2023-05-29T00:00:40;14.70;99.90
33673;DHT22;20011;51.510;9.942;2023-05-29T00:03:07;14.70;99.90
33673;DHT22;20011;51.510;9.942;2023-05-29T00:05:36;14.70;99.90
33673;DHT22;20011;51.510;9.942;2023-05-29T00:08:04;14.70;99.90
33673;DHT22;20011;51.510;9.942;2023-05-29T00:10:31;14.60;99.90
33673;DHT22;20011;51.510;9.942;2023-05-29T00:12:58;14.60;99.90
33673;DHT22;20011;51.510;9.942;2023-05-29T00:15:28;14.50;99.90
33673;DHT22;20011;51.510;9.942;2023-05-29T00:17:55;14.50;99.90
33673;DHT22;20011;51.510;9.942;2023-05-29T00:20:22;14.50;99.90
33673;DHT22;20011;51.510;9.942;2023-05-29T00:22:49;14.50;99.90
33673;DHT22;20011;51.510;9.942;2023-05-29T00:25:16;14.40;99.90
33673;DHT22;20011;51.510;9.942;2023-05-29T00:27:43;14.40;99.90
33673;DHT22;20011;51.510;9.942;2023-05-29T00:30:10;14.30;99.90
33673;DHT22;20011;51.510;9.942;2023-05-29T00:32:37;14.30;99.90
33673;DHT22;20011;51.510;9.942;2023-05-29T00:35:05;14.30;99.90
33673;DHT22;20011;51.510;9.942;2023-05-29T00:37:32;14.30;99.90
33673;DHT22;20011;51.510;9.942;2023-05-29T00:39:58;14.30;99.90
33673;DHT22;20011;51.510;9.942;2023-05-29T00:42:25;14.30;99.90
33673;DHT22;20011;51.510;9.942;2023-05-29T00:44:53;14.30;99.90
33673;DHT22;20011;51.510;9.942;2023-05-29T00:47:20;14.30;99.90
33673;DHT22;20011;51.510;9.942;2023-05-29T00:49:47;14.20;99.90
33673;DHT22;20011;51.510;9.942;2023-05-29T00:52:15;14.20;99.90
33673;DHT22;20011;51.510;9.942;2023-05-29T00:54:44;14.20;99.90
33673;DHT22;20011;51.510;9.942;2023-05-29T00:57:13;14.20;99.90
33673;DHT22;20011;51.510;9.942;2023-05-29T00:59:41;14.20;99.90
33673;DHT22;20011;51.510;9.942;2023-05-29T01:02:08;14.20;99.90
33673;DHT22;20011;51.510;9.942;2023-05-29T01:04:36;14.20;99.90
33673;DHT22;20011;51.510;9.942;2023-05-29T01:07:04;14.10;99.90
33673;DHT22;20011;51.510;9.942;2023-05-29T01:09:31;14.10;99.90
33673;DHT22;20011;51.510;9.942;2023-05-29T01:23:27;13.90;99.90
33673;DHT22;20011;51.510;9.942;2023-05-29T01:28:57;13.80;99.90
33673;DHT22;20011;51.510;9.942;2023-05-29T01:31:28;13.80;99.90
33673;DHT22;20011;51.510;9.942;2023-05-29T01:33:58;13.70;99.90
33673;DHT22;20011;51.510;9.942;2023-05-29T01:36:26;13.70;99.90
33673;DHT22;20011;51.510;9.942;2023-05-29T01:38:55;13.50;99.90
33673;DHT22;20011;51.510;9.942;2023-05-29T01:41:24;13.50;99.90
33673;DHT22;20011;51.510;9.942;2023-05-29T01:43:51;13.50;99.90
33673;DHT22;20011;51.510;9.942;2023-05-29T01:46:20;13.50;99.90
33673;DHT22;20011;51.510;9.942;2023-05-29T01:48:47;13.40;99.90
33673;DHT22;20011;51.510;9.942;2023-05-29T01:51:14;13.50;99.90
33673;DHT22;20011;51.510;9.942;2023-05-29T01:53:43;13.40;99.90
33673;DHT22;20011;51.510;9.942;2023-05-29T01:56:11;13.40;99.90
33673;DHT22;20011;51.510;9.942;2023-05-29T01:58:39;13.50;99.90
33673;DHT22;20011;51.510;9.942;2023-05-29T02:01:07;13.50;99.90
33673;DHT22;20011;51.510;9.942;2023-05-29T02:03:34;13.60;99.90
33673;DHT22;20011;51.510;9.942;2023-05-29T02:06:02;13.60;99.90
33673;DHT22;20011;51.510;9.942;2023-05-29T02:08:29;13.70;99.90
33673;DHT22;20011;51.510;9.942;2023-05-29T02:10:55;13.80;99.90
33673;DHT22;20011;51.510;9.942;2023-05-29T02:13:23;13.80;99.90
33673;DHT22;20011;51.510;9.942;2023-05-29T02:15:50;13.80;99.90
33673;DHT22;20011;51.510;9.942;2023-05-29T02:18:17;13.80;99.90
33673;DHT22;20011;51.510;9.942;2023-05-29T02:20:44;13.90;99.90
33673;DHT22;20011;51.510;9.942;2023-05-29T02:23:20;13.90;99.90
33673;DHT22;20011;51.510;9.942;2023-05-29T02:25:47;14.00;99.90
33673;DHT22;20011;51.510;9.942;2023-05-29T02:28:14;14.00;99.90
33673;DHT22;20011;51.510;9.942;2023-05-29T02:30:41;14.00;99.90
33673;DHT22;20011;51.510;9.942;2023-05-29T02:33:08;14.10;99.90
33673;DHT22;20011;51.510;9.942;2023-05-29T02:35:35;14.10;99.90
33673;DHT22;20011;51.510;9.942;2023-05-29T02:38:03;14.00;99.90
33673;DHT22;20011;51.510;9.942;2023-05-29T02:40:30;14.00;99.90
33673;DHT22;20011;51.510;9.942;2023-05-29T02:42:57;14.10;99.90
33673;DHT22;20011;51.510;9.942;2023-05-29T02:45:25;14.10;99.90
33673;DHT22;20011;51.510;9.942;2023-05-29T02:47:53;14.10;99.90
33673;DHT22;20011;51.510;9.942;2023-05-29T02:50:20;14.10;99.90
33673;DHT22;20011;51.510;9.942;2023-05-29T02:52:47;14.10;99.90
33673;DHT22;20011;51.510;9.942;2023-05-29T02:55:14;14.10;99.90
33673;DHT22;20011;51.510;9.942;2023-05-29T02:57:42;14.10;99.90
33673;DHT22;20011;51.510;9.942;2023-05-29T03:00:09;14.00;99.90
33673;DHT22;20011;51.510;9.942;2023-05-29T03:02:38;14.00;99.90
33673;DHT22;20011;51.510;9.942;2023-05-29T03:05:05;14.00;99.90
33673;DHT22;20011;51.510;9.942;2023-05-29T03:07:33;14.00;99.90
33673;DHT22;20011;51.510;9.942;2023-05-29T03:10:00;14.00;99.90
33673;DHT22;20011;51.510;9.942;2023-05-29T03:12:28;14.00;99.90
33673;DHT22;20011;51.510;9.942;2023-05-29T03:14:56;14.00;99.90
33673;DHT22;20011;51.510;9.942;2023-05-29T03:17:24;14.00;99.90
33673;DHT22;20011;51.510;9.942;2023-05-29T03:19:53;14.00;99.90
33673;DHT22;20011;51.510;9.942;2023-05-29T03:22:20;14.00;99.90
33673;DHT22;20011;51.510;9.942;2023-05-29T03:24:47;14.00;99.90
33673;DHT22;20011;51.510;9.942;2023-05-29T03:27:14;14.00;99.90
33673;DHT22;20011;51.510;9.942;2023-05-29T03:29:42;14.00;99.90
33673;DHT22;20011;51.510;9.942;2023-05-29T03:32:09;14.00;99.90
33673;DHT22;20011;51.510;9.942;2023-05-29T03:34:37;14.00;99.90
33673;DHT22;20011;51.510;9.942;2023-05-29T03:37:05;14.00;99.90
33673;DHT22;20011;51.510;9.942;2023-05-29T03:39:32;13.90;99.90
33673;DHT22;20011;51.510;9.942;2023-05-29T03:41:59;14.00;99.90
33673;DHT22;20011;51.510;9.942;2023-05-29T03:44:27;13.90;99.90
33673;DHT22;20011;51.510;9.942;2023-05-29T03:46:54;13.90;99.90
33673;DHT22;20011;51.510;9.942;2023-05-29T03:49:22;13.90;99.90
33673;DHT22;20011;51.510;9.942;2023-05-29T03:51:50;13.90;99.90
33673;DHT22;20011;51.510;9.942;2023-05-29T03:54:18;13.90;99.90
33673;DHT22;20011;51.510;9.942;2023-05-29T03:56:45;13.90;99.90
33673;DHT22;20011;51.510;9.942;2023-05-29T03:59:13;13.90;99.90
33673;DHT22;20011;51.510;9.942;2023-05-29T04:01:40;13.90;99.90
33673;DHT22;20011;51.510;9.942;2023-05-29T04:04:07;13.90;99.90
33673;DHT22;20011;51.510;9.942;2023-05-29T04:06:34;13.90;99.90
33673;DHT22;20011;51.510;9.942;2023-05-29T04:09:06;13.80;99.90
33673;DHT22;20011;51.510;9.942;2023-05-29T04:11:33;13.80;99.90
33673;DHT22;20011;51.510;9.942;2023-05-29T04:14:03;13.90;99.90
33673;DHT22;20011;51.510;9.942;2023-05-29T04:16:30;13.90;99.90
33673;DHT22;20011;51.510;9.942;2023-05-29T04:18:57;13.90;99.90
33673;DHT22;20011;51.510;9.942;2023-05-29T04:21:27;13.90;99.90
33673;DHT22;20011;51.510;9.942;2023-05-29T04:23:54;13.90;99.90
33673;DHT22;20011;51.510;9.942;2023-05-29T04:26:22;13.90;99.90
33673;DHT22;20011;51.510;9.942;2023-05-29T04:28:54;13.90;99.90
33673;DHT22;20011;51.510;9.942;2023-05-29T04:31:27;13.90;99.90
33673;DHT22;20011;51.510;9.942;2023-05-29T04:33:55;13.90;99.90
33673;DHT22;20011;51.510;9.942;2023-05-29T04:36:26;14.00;99.90
33673;DHT22;20011;51.510;9.942;2023-05-29T04:39:05;14.00;99.90
33673;DHT22;20011;51.510;9.942;2023-05-29T04:41:34;14.00;99.90
33673;DHT22;20011;51.510;9.942;2023-05-29T04:44:03;14.10;99.90
33673;DHT22;20011;51.510;9.942;2023-05-29T04:46:41;14.10;99.90
33673;DHT22;20011;51.510;9.942;2023-05-29T04:49:12;14.00;99.90
33673;DHT22;20011;51.510;9.942;2023-05-29T04:51:42;14.10;99.90
33673;DHT22;20011;51.510;9.942;2023-05-29T04:54:10;14.10;99.90
33673;DHT22;20011;51.510;9.942;2023-05-29T04:56:39;14.10;99.90
33673;DHT22;20011;51.510;9.942;2023-05-29T04:59:12;14.10;99.90
33673;DHT22;20011;51.510;9.942;2023-05-29T05:01:39;14.10;99.90
33673;DHT22;20011;51.510;9.942;2023-05-29T05:04:06;14.10;99.90
33673;DHT22;20011;51.510;9.942;2023-05-29T05:06:33;14.10;99.90
33673;DHT22;20011;51.510;9.942;2023-05-29T05:09:00;14.10;99.90
33673;DHT22;20011;51.510;9.942;2023-05-29T05:11:27;14.10;99.90
33673;DHT22;20011;51.510;9.942;2023-05-29T05:13:55;14.10;99.90
33673;DHT22;20011;51.510;9.942;2023-05-29T05:16:21;14.10;99.90
33673;DHT22;20011;51.510;9.942;2023-05-29T05:18:49;14.10;99.90
33673;DHT22;20011;51.510;9.942;2023-05-29T05:21:16;14.10;99.90
33673;DHT22;20011;51.510;9.942;2023-05-29T05:23:45;14.10;99.90
33673;DHT22;20011;51.510;9.942;2023-05-29T05:26:25;14.10;99.90
33673;DHT22;20011;51.510;9.942;2023-05-29T05:28:55;14.10;99.90
33673;DHT22;20011;51.510;9.942;2023-05-29T05:31:24;14.10;99.90
33673;DHT22;20011;51.510;9.942;2023-05-29T05:33:52;14.10;99.90
33673;DHT22;20011;51.510;9.942;2023-05-29T05:36:19;14.20;99.90
33673;DHT22;20011;51.510;9.942;2023-05-29T05:38:51;14.20;99.90
33673;DHT22;20011;51.510;9.942;2023-05-29T05:41:18;14.20;99.90
33673;DHT22;20011;51.510;9.942;2023-05-29T05:43:45;14.20;99.90
33673;DHT22;20011;51.510;9.942;2023-05-29T05:46:38;14.20;99.90
33673;DHT22;20011;51.510;9.942;2023-05-29T05:49:05;14.20;99.90
33673;DHT22;20011;51.510;9.942;2023-05-29T05:51:32;14.20;99.90
33673;DHT22;20011;51.510;9.942;2023-05-29T05:53:59;14.20;99.90
33673;DHT22;20011;51.510;9.942;2023-05-29T05:56:27;14.20;99.90
33673;DHT22;20011;51.510;9.942;2023-05-29T05:58:54;14.30;99.90
33673;DHT22;20011;51.510;9.942;2023-05-29T06:01:21;14.30;99.90
33673;DHT22;20011;51.510;9.942;2023-05-29T06:03:50;14.30;99.90
33673;DHT22;20011;51.510;9.942;2023-05-29T06:06:17;14.30;99.90
33673;DHT22;20011;51.510;9.942;2023-05-29T06:08:46;14.30;99.90
33673;DHT22;20011;51.510;9.942;2023-05-29T06:11:15;14.30;99.90
33673;DHT22;20011;51.510;9.942;2023-05-29T06:13:44;14.30;99.90
33673;DHT22;20011;51.510;9.942;2023-05-29T06:16:26;14.30;99.90
33673;DHT22;20011;51.510;9.942;2023-05-29T06:18:53;14.30;99.90
33673;DHT22;20011;51.510;9.942;2023-05-29T06:21:20;14.40;99.90
33673;DHT22;20011;51.510;9.942;2023-05-29T06:23:52;14.30;99.90
33673;DHT22;20011;51.510;9.942;2023-05-29T06:26:20;14.40;99.90
33673;DHT22;20011;51.510;9.942;2023-05-29T06:28:49;14.40;99.90
33673;DHT22;20011;51.510;9.942;2023-05-29T06:31:16;14.40;99.90
33673;DHT22;20011;51.510;9.942;2023-05-29T06:33:44;14.40;99.90
33673;DHT22;20011;51.510;9.942;2023-05-29T06:36:11;14.50;99.90
33673;DHT22;20011;51.510;9.942;2023-05-29T06:38:38;14.50;99.90
33673;DHT22;20011;51.510;9.942;2023-05-29T06:41:05;14.50;99.90
33673;DHT22;20011;51.510;9.942;2023-05-29T06:43:33;14.50;99.90
33673;DHT22;20011;51.510;9.942;2023-05-29T06:46:02;14.50;99.90
33673;DHT22;20011;51.510;9.942;2023-05-29T06:48:35;14.50;99.90
33673;DHT22;20011;51.510;9.942;2023-05-29T06:51:03;14.50;99.90
33673;DHT22;20011;51.510;9.942;2023-05-29T06:53:44;14.50;99.90
33673;DHT22;20011;51.510;9.942;2023-05-29T06:56:13;14.60;99.90
33673;DHT22;20011;51.510;9.942;2023-05-29T06:58:40;14.60;99.90
33673;DHT22;20011;51.510;9.942;2023-05-29T07:01:07;14.60;99.90
33673;DHT22;20011;51.510;9.942;2023-05-29T07:03:37;14.60;99.90
33673;DHT22;20011;51.510;9.942;2023-05-29T07:06:05;14.70;99.90
33673;DHT22;20011;51.510;9.942;2023-05-29T07:08:33;14.70;99.90
33673;DHT22;20011;51.510;9.942;2023-05-29T07:11:01;14.70;99.90
33673;DHT22;20011;51.510;9.942;2023-05-29T07:13:28;14.70;99.90
33673;DHT22;20011;51.510;9.942;2023-05-29T07:15:55;14.70;99.90
33673;DHT22;20011;51.510;9.942;2023-05-29T07:18:31;14.70;99.90
33673;DHT22;20011;51.510;9.942;2023-05-29T07:21:00;14.70;99.90
33673;DHT22;20011;51.510;9.942;2023-05-29T07:23:29;14.80;99.90
33673;DHT22;20011;51.510;9.942;2023-05-29T07:25:56;14.80;99.90
33673;DHT22;20011;51.510;9.942;2023-05-29T07:28:26;14.80;99.90
33673;DHT22;20011;51.510;9.942;2023-05-29T07:30:53;14.90;99.90
33673;DHT22;20011;51.510;9.942;2023-05-29T07:33:21;14.90;99.90
33673;DHT22;20011;51.510;9.942;2023-05-29T07:35:48;14.90;99.90
33673;DHT22;20011;51.510;9.942;2023-05-29T07:38:16;14.90;99.90
33673;DHT22;20011;51.510;9.942;2023-05-29T07:40:43;14.90;99.90
33673;DHT22;20011;51.510;9.942;2023-05-29T07:43:30;14.90;99.90
33673;DHT22;20011;51.510;9.942;2023-05-29T07:46:00;15.00;99.90
33673;DHT22;20011;51.510;9.942;2023-05-29T07:48:28;15.00;99.90
33673;DHT22;20011;51.510;9.942;2023-05-29T07:50:56;15.00;99.90
33673;DHT22;20011;51.510;9.942;2023-05-29T07:53:26;15.10;99.90
33673;DHT22;20011;51.510;9.942;2023-05-29T07:55:53;15.10;99.90
33673;DHT22;20011;51.510;9.942;2023-05-29T07:58:21;15.10;99.90
33673;DHT22;20011;51.510;9.942;2023-05-29T08:00:49;15.10;99.90
33673;DHT22;20011;51.510;9.942;2023-05-29T08:03:16;15.20;99.90
33673;DHT22;20011;51.510;9.942;2023-05-29T08:06:03;15.20;99.90
33673;DHT22;20011;51.510;9.942;2023-05-29T08:08:30;15.30;99.90
33673;DHT22;20011;51.510;9.942;2023-05-29T08:10:58;15.30;99.90
33673;DHT22;20011;51.510;9.942;2023-05-29T08:13:26;15.30;99.90
33673;DHT22;20011;51.510;9.942;2023-05-29T08:15:55;15.30;99.90
33673;DHT22;20011;51.510;9.942;2023-05-29T08:18:25;15.30;99.90
33673;DHT22;20011;51.510;9.942;2023-05-29T08:20:53;15.30;99.90
33673;DHT22;20011;51.510;9.942;2023-05-29T08:23:20;15.30;99.90
33673;DHT22;20011;51.510;9.942;2023-05-29T08:25:47;15.40;99.90
33673;DHT22;20011;51.510;9.942;2023-05-29T08:28:15;15.40;99.90
33673;DHT22;20011;51.510;9.942;2023-05-29T08:30:42;15.40;99.90
33673;DHT22;20011;51.510;9.942;2023-05-29T08:33:09;15.50;99.90
33673;DHT22;20011;51.510;9.942;2023-05-29T08:35:36;15.50;99.90
33673;DHT22;20011;51.510;9.942;2023-05-29T08:38:03;15.60;99.90
33673;DHT22;20011;51.510;9.942;2023-05-29T08:40:30;15.60;99.90
33673;DHT22;20011;51.510;9.942;2023-05-29T08:43:01;15.60;99.90
33673;DHT22;20011;51.510;9.942;2023-05-29T08:45:29;15.70;99.90
33673;DHT22;20011;51.510;9.942;2023-05-29T08:47:58;15.70;99.90
33673;DHT22;20011;51.510;9.942;2023-05-29T08:50:27;15.80;99.90
33673;DHT22;20011;51.510;9.942;2023-05-29T08:52:54;15.80;99.90
33673;DHT22;20011;51.510;9.942;2023-05-29T08:55:22;15.80;99.90
33673;DHT22;20011;51.510;9.942;2023-05-29T08:57:50;15.90;99.90
33673;DHT22;20011;51.510;9.942;2023-05-29T09:00:17;15.90;99.90
33673;DHT22;20011;51.510;9.942;2023-05-29T09:02:47;15.90;99.90
33673;DHT22;20011;51.510;9.942;2023-05-29T09:05:14;15.90;99.90
33673;DHT22;20011;51.510;9.942;2023-05-29T09:07:40;15.90;99.90
33673;DHT22;20011;51.510;9.942;2023-05-29T09:10:11;16.00;99.90
33673;DHT22;20011;51.510;9.942;2023-05-29T09:12:38;16.00;99.90
33673;DHT22;20011;51.510;9.942;2023-05-29T09:15:23;16.00;99.90
33673;DHT22;20011;51.510;9.942;2023-05-29T09:17:51;16.00;99.90
33673;DHT22;20011;51.510;9.942;2023-05-29T09:20:22;16.10;99.90
33673;DHT22;20011;51.510;9.942;2023-05-29T09:23:01;16.10;99.90
33673;DHT22;20011;51.510;9.942;2023-05-29T09:25:30;16.10;99.90
33673;DHT22;20011;51.510;9.942;2023-05-29T09:28:03;16.10;99.90
33673;DHT22;20011;51.510;9.942;2023-05-29T09:30:43;16.10;99.90
33673;DHT22;20011;51.510;9.942;2023-05-29T09:33:13;16.20;99.90
33673;DHT22;20011;51.510;9.942;2023-05-29T09:35:45;16.10;99.90
33673;DHT22;20011;51.510;9.942;2023-05-29T09:38:15;16.20;99.90
33673;DHT22;20011;51.510;9.942;2023-05-29T09:40:47;16.20;99.90
33673;DHT22;20011;51.510;9.942;2023-05-29T09:43:16;16.20;99.90
33673;DHT22;20011;51.510;9.942;2023-05-29T09:45:45;16.30;99.90
33673;DHT22;20011;51.510;9.942;2023-05-29T09:48:14;16.30;99.90
33673;DHT22;20011;51.510;9.942;2023-05-29T09:50:42;16.40;99.90
33673;DHT22;20011;51.510;9.942;2023-05-29T09:53:19;16.30;99.90
33673;DHT22;20011;51.510;9.942;2023-05-29T09:55:48;16.40;99.90
33673;DHT22;20011;51.510;9.942;2023-05-29T09:58:17;16.40;99.90
33673;DHT22;20011;51.510;9.942;2023-05-29T10:00:44;16.50;99.90
33673;DHT22;20011;51.510;9.942;2023-05-29T10:03:12;16.50;99.90
33673;DHT22;20011;51.510;9.942;2023-05-29T10:05:40;16.50;99.90
33673;DHT22;20011;51.510;9.942;2023-05-29T10:08:12;16.50;99.90
33673;DHT22;20011;51.510;9.942;2023-05-29T10:10:45;16.60;99.90
33673;DHT22;20011;51.510;9.942;2023-05-29T10:13:16;16.50;99.90
33673;DHT22;20011;51.510;9.942;2023-05-29T10:15:45;16.60;99.90
33673;DHT22;20011;51.510;9.942;2023-05-29T10:18:20;16.60;99.90
33673;DHT22;20011;51.510;9.942;2023-05-29T10:20:52;16.70;99.90
33673;DHT22;20011;51.510;9.942;2023-05-29T10:23:25;16.70;99.90
33673;DHT22;20011;51.510;9.942;2023-05-29T10:26:01;16.80;99.90
33673;DHT22;20011;51.510;9.942;2023-05-29T10:28:31;16.80;99.90
33673;DHT22;20011;51.510;9.942;2023-05-29T10:31:09;16.80;99.90
33673;DHT22;20011;51.510;9.942;2023-05-29T10:36:22;16.90;99.90
33673;DHT22;20011;51.510;9.942;2023-05-29T10:38:51;16.90;99.90
33673;DHT22;20011;51.510;9.942;2023-05-29T10:43:55;16.90;99.90
33673;DHT22;20011;51.510;9.942;2023-05-29T10:49:19;17.00;99.90
33673;DHT22;20011;51.510;9.942;2023-05-29T10:51:47;17.00;99.90
33673;DHT22;20011;51.510;9.942;2023-05-29T10:54:15;17.10;99.90
33673;DHT22;20011;51.510;9.942;2023-05-29T10:56:52;17.10;99.90
33673;DHT22;20011;51.510;9.942;2023-05-29T10:59:22;17.10;99.90
33673;DHT22;20011;51.510;9.942;2023-05-29T11:01:54;17.10;99.90
33673;DHT22;20011;51.510;9.942;2023-05-29T11:06:51;17.20;99.90
33673;DHT22;20011;51.510;9.942;2023-05-29T11:09:30;17.20;99.90
33673;DHT22;20011;51.510;9.942;2023-05-29T11:12:23;17.40;99.90
33673;DHT22;20011;51.510;9.942;2023-05-29T11:15:05;17.30;99.90
33673;DHT22;20011;51.510;9.942;2023-05-29T11:20:16;17.30;99.90
33673;DHT22;20011;51.510;9.942;2023-05-29T11:25:28;17.40;99.90
33673;DHT22;20011;51.510;9.942;2023-05-29T11:27:55;17.50;99.90
33673;DHT22;20011;51.510;9.942;2023-05-29T11:30:22;17.50;99.90
33673;DHT22;20011;51.510;9.942;2023-05-29T11:32:49;17.50;99.90
33673;DHT22;20011;51.510;9.942;2023-05-29T11:35:22;17.50;99.90
33673;DHT22;20011;51.510;9.942;2023-05-29T11:37:49;17.70;99.90
33673;DHT22;20011;51.510;9.942;2023-05-29T11:40:18;17.60;99.90
33673;DHT22;20011;51.510;9.942;2023-05-29T11:42:46;17.70;99.90
33673;DHT22;20011;51.510;9.942;2023-05-29T11:45:17;17.70;99.90
33673;DHT22;20011;51.510;9.942;2023-05-29T11:47:58;17.70;99.90
33673;DHT22;20011;51.510;9.942;2023-05-29T11:50:28;17.70;99.90
33673;DHT22;20011;51.510;9.942;2023-05-29T11:52:56;17.70;99.90
33673;DHT22;20011;51.510;9.942;2023-05-29T11:55:24;17.70;99.90
33673;DHT22;20011;51.510;9.942;2023-05-29T11:58:00;17.80;99.90
33673;DHT22;20011;51.510;9.942;2023-05-29T12:00:47;17.70;99.90
33673;DHT22;20011;51.510;9.942;2023-05-29T12:03:17;17.80;99.90
33673;DHT22;20011;51.510;9.942;2023-05-29T12:05:47;17.80;99.90
33673;DHT22;20011;51.510;9.942;2023-05-29T12:08:23;17.80;99.90
33673;DHT22;20011;51.510;9.942;2023-05-29T12:10:52;17.80;99.90
33673;DHT22;20011;51.510;9.942;2023-05-29T12:13:20;17.90;99.90
33673;DHT22;20011;51.510;9.942;2023-05-29T12:15:48;17.80;99.90
33673;DHT22;20011;51.510;9.942;2023-05-29T12:18:16;17.90;99.90
33673;DHT22;20011;51.510;9.942;2023-05-29T12:20:44;17.90;99.90
33673;DHT22;20011;51.510;9.942;2023-05-29T12:23:11;18.00;99.90
33673;DHT22;20011;51.510;9.942;2023-05-29T12:25:39;18.00;99.50
33673;DHT22;20011;51.510;9.942;2023-05-29T12:28:07;18.00;99.70
33673;DHT22;20011;51.510;9.942;2023-05-29T12:30:38;18.00;99.30
33673;DHT22;20011;51.510;9.942;2023-05-29T12:33:06;18.00;99.40
33673;DHT22;20011;51.510;9.942;2023-05-29T12:35:33;18.00;99.30
33673;DHT22;20011;51.510;9.942;2023-05-29T12:38:03;18.00;99.40
33673;DHT22;20011;51.510;9.942;2023-05-29T12:40:34;18.00;98.70
33673;DHT22;20011;51.510;9.942;2023-05-29T12:43:07;18.00;98.70
33673;DHT22;20011;51.510;9.942;2023-05-29T12:45:37;18.10;98.60
33673;DHT22;20011;51.510;9.942;2023-05-29T12:48:05;18.10;98.20
33673;DHT22;20011;51.510;9.942;2023-05-29T12:50:40;18.10;98.10
33673;DHT22;20011;51.510;9.942;2023-05-29T12:55:42;18.10;97.70
33673;DHT22;20011;51.510;9.942;2023-05-29T12:58:12;18.10;97.50
33673;DHT22;20011;51.510;9.942;2023-05-29T13:00:42;18.10;97.80
33673;DHT22;20011;51.510;9.942;2023-05-29T13:03:09;18.00;97.80
33673;DHT22;20011;51.510;9.942;2023-05-29T13:05:38;18.10;97.40
33673;DHT22;20011;51.510;9.942;2023-05-29T13:08:06;18.10;97.10
33673;DHT22;20011;51.510;9.942;2023-05-29T13:10:35;18.10;97.20
33673;DHT22;20011;51.510;9.942;2023-05-29T13:13:02;18.10;97.10
33673;DHT22;20011;51.510;9.942;2023-05-29T13:15:30;18.10;97.40
33673;DHT22;20011;51.510;9.942;2023-05-29T13:17:59;18.20;96.80
33673;DHT22;20011;51.510;9.942;2023-05-29T13:20:26;18.20;97.00
33673;DHT22;20011;51.510;9.942;2023-05-29T13:22:53;18.20;96.60
33673;DHT22;20011;51.510;9.942;2023-05-29T13:25:21;18.20;96.50
33673;DHT22;20011;51.510;9.942;2023-05-29T13:27:51;18.10;96.60
33673;DHT22;20011;51.510;9.942;2023-05-29T13:30:18;18.20;96.60
33673;DHT22;20011;51.510;9.942;2023-05-29T13:32:45;18.20;96.20
33673;DHT22;20011;51.510;9.942;2023-05-29T13:35:12;18.20;96.20
33673;DHT22;20011;51.510;9.942;2023-05-29T13:37:39;18.20;96.30
33673;DHT22;20011;51.510;9.942;2023-05-29T13:40:07;18.30;95.60
33673;DHT22;20011;51.510;9.942;2023-05-29T13:42:38;18.30;95.70
33673;DHT22;20011;51.510;9.942;2023-05-29T13:45:07;18.30;95.40
33673;DHT22;20011;51.510;9.942;2023-05-29T13:47:37;18.30;95.90
33673;DHT22;20011;51.510;9.942;2023-05-29T13:50:04;18.30;95.80
33673;DHT22;20011;51.510;9.942;2023-05-29T13:52:32;18.30;95.70
33673;DHT22;20011;51.510;9.942;2023-05-29T13:54:59;18.40;95.20
33673;DHT22;20011;51.510;9.942;2023-05-29T13:57:31;18.30;95.20
33673;DHT22;20011;51.510;9.942;2023-05-29T13:59:58;18.30;95.30
33673;DHT22;20011;51.510;9.942;2023-05-29T14:02:25;18.30;95.30
33673;DHT22;20011;51.510;9.942;2023-05-29T14:04:53;18.30;95.20
33673;DHT22;20011;51.510;9.942;2023-05-29T14:07:20;18.30;95.30
33673;DHT22;20011;51.510;9.942;2023-05-29T14:09:47;18.30;95.30
33673;DHT22;20011;51.510;9.942;2023-05-29T14:12:14;18.30;95.00
33673;DHT22;20011;51.510;9.942;2023-05-29T14:14:42;18.30;94.60
33673;DHT22;20011;51.510;9.942;2023-05-29T14:17:09;18.40;94.30
33673;DHT22;20011;51.510;9.942;2023-05-29T14:19:36;18.40;94.20
33673;DHT22;20011;51.510;9.942;2023-05-29T14:22:03;18.40;94.50
33673;DHT22;20011;51.510;9.942;2023-05-29T14:24:30;18.40;94.50
33673;DHT22;20011;51.510;9.942;2023-05-29T14:26:57;18.30;94.70
33673;DHT22;20011;51.510;9.942;2023-05-29T14:29:24;18.30;94.80
33673;DHT22;20011;51.510;9.942;2023-05-29T14:31:51;18.30;94.50
33673;DHT22;20011;51.510;9.942;2023-05-29T14:34:18;18.40;94.10
33673;DHT22;20011;51.510;9.942;2023-05-29T14:36:45;18.40;93.90
33673;DHT22;20011;51.510;9.942;2023-05-29T14:39:12;18.50;93.40
33673;DHT22;20011;51.510;9.942;2023-05-29T14:41:39;18.40;93.90
33673;DHT22;20011;51.510;9.942;2023-05-29T14:44:06;18.40;93.90
33673;DHT22;20011;51.510;9.942;2023-05-29T14:46:33;18.50;93.30
33673;DHT22;20011;51.510;9.942;2023-05-29T14:49:06;18.50;93.40
33673;DHT22;20011;51.510;9.942;2023-05-29T14:51:33;18.50;93.10
33673;DHT22;20011;51.510;9.942;2023-05-29T14:53:59;18.50;93.10
33673;DHT22;20011;51.510;9.942;2023-05-29T14:56:26;18.50;93.50
33673;DHT22;20011;51.510;9.942;2023-05-29T14:58:53;18.40;93.30
33673;DHT22;20011;51.510;9.942;2023-05-29T15:01:20;18.50;92.80
33673;DHT22;20011;51.510;9.942;2023-05-29T15:03:47;18.50;92.70
33673;DHT22;20011;51.510;9.942;2023-05-29T15:06:14;18.50;92.20
33673;DHT22;20011;51.510;9.942;2023-05-29T15:08:41;18.50;92.10
33673;DHT22;20011;51.510;9.942;2023-05-29T15:11:10;18.50;92.00
33673;DHT22;20011;51.510;9.942;2023-05-29T15:13:40;18.40;91.70
33673;DHT22;20011;51.510;9.942;2023-05-29T15:16:07;18.50;91.80
33673;DHT22;20011;51.510;9.942;2023-05-29T15:18:34;18.40;92.20
33673;DHT22;20011;51.510;9.942;2023-05-29T15:21:03;18.50;91.70
33673;DHT22;20011;51.510;9.942;2023-05-29T15:23:30;18.40;91.60
33673;DHT22;20011;51.510;9.942;2023-05-29T15:25:57;18.40;91.60
33673;DHT22;20011;51.510;9.942;2023-05-29T15:28:24;18.40;91.40
33673;DHT22;20011;51.510;9.942;2023-05-29T15:30:51;18.50;91.40
33673;DHT22;20011;51.510;9.942;2023-05-29T15:33:19;18.40;91.70
33673;DHT22;20011;51.510;9.942;2023-05-29T15:35:46;18.50;90.90
33673;DHT22;20011;51.510;9.942;2023-05-29T15:38:13;18.40;91.10
33673;DHT22;20011;51.510;9.942;2023-05-29T15:40:40;18.40;90.90
33673;DHT22;20011;51.510;9.942;2023-05-29T15:43:08;18.50;90.90
33673;DHT22;20011;51.510;9.942;2023-05-29T15:45:36;18.50;90.60
33673;DHT22;20011;51.510;9.942;2023-05-29T15:48:04;18.50;90.90
33673;DHT22;20011;51.510;9.942;2023-05-29T15:50:31;18.40;91.20
33673;DHT22;20011;51.510;9.942;2023-05-29T15:52:58;18.40;91.00
33673;DHT22;20011;51.510;9.942;2023-05-29T15:55:25;18.40;91.10
33673;DHT22;20011;51.510;9.942;2023-05-29T15:57:52;18.30;90.80
33673;DHT22;20011;51.510;9.942;2023-05-29T16:00:20;18.40;90.60
33673;DHT22;20011;51.510;9.942;2023-05-29T16:02:47;18.40;90.80
33673;DHT22;20011;51.510;9.942;2023-05-29T16:05:16;18.50;90.70
33673;DHT22;20011;51.510;9.942;2023-05-29T16:07:43;18.50;90.50
33673;DHT22;20011;51.510;9.942;2023-05-29T16:10:15;18.40;90.50
33673;DHT22;20011;51.510;9.942;2023-05-29T16:12:45;18.40;90.40